Time;durP1;ratioP1;P1;durP2;ratioP2;P2;SDS_P1;SDS_P2;PMS_P1;PMS_P2;Temp;Humidity;BMP_temperature;BMP_pressure;BME280_temperature;BME280_humidity;BME280_pressure;Samples;Min_cycle;Max_cycle;Signal;HPM_P1;HPM_P2
2023/04/30 00:00:09;;;;;;;7.93;3.92;;;7.50;99.90;;;;;;5068191;28;20051;-70
2023/04/30 00:02:35;;;;;;;6.25;4.20;;;7.50;99.90;;;;;;5094578;28;20051;-70
2023/04/30 00:05:00;;;;;;;7.00;3.92;;;7.50;99.90;;;;;;5076304;28;20040;-70
2023/04/30 00:07:26;;;;;;;8.00;3.45;;;7.50;99.90;;;;;;5076395;28;20115;-70
2023/04/30 00:09:51;;;;;;;10.18;4.03;;;7.40;99.90;;;;;;5076377;28;20036;-70
2023/04/30 00:12:17;;;;;;;13.13;4.70;;;7.40;99.90;;;;;;5094512;28;20052;-70
2023/04/30 00:14:42;;;;;;;5.35;3.70;;;7.40;99.90;;;;;;5094356;28;20040;-70
2023/04/30 00:17:08;;;;;;;8.35;4.00;;;7.40;99.90;;;;;;5094144;28;20381;-70
2023/04/30 00:19:33;;;;;;;6.68;3.95;;;7.40;99.90;;;;;;5076126;28;20040;-70
2023/04/30 00:22:00;;;;;;;5.88;3.88;;;7.30;99.90;;;;;;5076024;28;20081;-70
2023/04/30 00:24:26;;;;;;;7.57;4.32;;;7.30;99.90;;;;;;5075475;28;20044;-70
2023/04/30 00:26:52;;;;;;;12.18;4.45;;;7.30;99.90;;;;;;5075705;28;20036;-70
2023/04/30 00:29:17;;;;;;;8.52;3.95;;;7.30;99.90;;;;;;5076196;28;20118;-70
2023/04/30 00:31:43;;;;;;;10.45;4.28;;;7.30;99.90;;;;;;5075995;28;20119;-70
2023/04/30 00:34:09;;;;;;;9.18;3.90;;;7.30;99.90;;;;;;5075893;28;20036;-70
2023/04/30 00:36:34;;;;;;;9.07;4.13;;;7.30;99.90;;;;;;5093520;28;20043;-70
2023/04/30 00:39:00;;;;;;;10.52;3.85;;;7.30;99.90;;;;;;5094193;28;20032;-70
2023/04/30 00:41:27;;;;;;;9.13;3.50;;;7.20;99.90;;;;;;5059226;28;20415;-70
2023/04/30 00:43:52;;;;;;;6.80;4.05;;;7.20;99.90;;;;;;5093809;28;20059;-70
2023/04/30 00:46:18;;;;;;;8.93;4.45;;;7.20;99.90;;;;;;5075280;28;20039;-70
2023/04/30 00:48:43;;;;;;;10.38;3.80;;;7.20;99.90;;;;;;5067142;28;20038;-70
2023/04/30 00:51:10;;;;;;;12.63;4.10;;;7.10;99.90;;;;;;5093749;28;20067;-70
2023/04/30 00:53:38;;;;;;;6.40;3.63;;;7.20;99.90;;;;;;5075539;28;20122;-70
2023/04/30 00:56:06;;;;;;;10.57;3.55;;;7.10;99.90;;;;;;5093604;28;20040;-70
2023/04/30 00:58:32;;;;;;;10.07;4.47;;;7.00;99.90;;;;;;5093448;28;20161;-70
2023/04/30 01:00:58;;;;;;;9.25;4.43;;;6.90;99.90;;;;;;5075532;28;20437;-70
2023/04/30 01:03:24;;;;;;;7.55;4.25;;;6.90;99.90;;;;;;5075254;28;20040;-70
2023/04/30 01:05:49;;;;;;;7.38;5.22;;;6.90;99.90;;;;;;5075166;28;20040;-70
2023/04/30 01:08:15;;;;;;;7.30;3.63;;;6.80;99.90;;;;;;5075041;28;20415;-70
2023/04/30 01:10:47;;;;;;;6.32;4.50;;;6.70;99.90;;;;;;5058633;28;20044;-70
2023/04/30 01:13:28;;;;;;;10.20;4.68;;;6.70;99.90;;;;;;5075488;28;20502;-70
2023/04/30 01:16:01;;;;;;;8.15;5.07;;;6.70;99.90;;;;;;5075006;28;20709;-70
2023/04/30 01:18:32;;;;;;;10.73;5.30;;;6.60;99.90;;;;;;5074963;28;20055;-70
2023/04/30 01:21:02;;;;;;;10.05;4.78;;;6.60;99.90;;;;;;5093194;28;20529;-70
2023/04/30 01:24:00;;;;;;;8.40;4.50;;;6.60;99.90;;;;;;5075048;28;20522;-70
2023/04/30 01:26:41;;;;;;;9.15;4.88;;;6.60;99.90;;;;;;5060557;28;20698;-70
2023/04/30 01:29:09;;;;;;;8.45;4.65;;;6.60;99.90;;;;;;5058161;28;20072;-70
2023/04/30 01:31:34;;;;;;;9.50;4.95;;;6.60;99.90;;;;;;5074809;28;20415;-70
2023/04/30 01:34:00;;;;;;;8.82;4.70;;;6.60;99.90;;;;;;5074904;28;20052;-70
2023/04/30 01:36:49;;;;;;;9.05;5.38;;;6.60;99.90;;;;;;5092397;28;20106;-70
2023/04/30 01:39:45;;;;;;;9.77;5.40;;;6.60;99.90;;;;;;5092969;28;20040;-70
2023/04/30 01:42:40;;;;;;;7.82;5.13;;;6.60;99.90;;;;;;5074534;28;20036;-70
2023/04/30 01:45:19;;;;;;;6.57;5.20;;;6.50;99.90;;;;;;5091926;28;20163;-69
2023/04/30 01:47:51;;;;;;;11.52;5.45;;;6.50;99.90;;;;;;5092651;28;20067;-69
2023/04/30 01:50:40;;;;;;;8.60;4.80;;;6.50;99.90;;;;;;5074485;28;20039;-69
2023/04/30 01:53:11;;;;;;;6.82;4.97;;;6.50;99.90;;;;;;5092514;28;20032;-69
2023/04/30 01:55:51;;;;;;;11.50;4.72;;;6.50;99.90;;;;;;5092658;28;20044;-69
2023/04/30 01:58:17;;;;;;;6.25;5.25;;;6.50;99.90;;;;;;5092393;28;20071;-69
2023/04/30 02:00:43;;;;;;;15.38;5.47;;;6.50;99.90;;;;;;5092571;28;20067;-69
2023/04/30 02:03:08;;;;;;;6.93;5.20;;;6.50;99.90;;;;;;5074084;28;20040;-69
2023/04/30 02:05:34;;;;;;;9.43;5.15;;;6.40;99.90;;;;;;5092135;28;20043;-69
2023/04/30 02:07:59;;;;;;;8.98;5.15;;;6.40;99.90;;;;;;5073975;28;20060;-70
2023/04/30 02:10:28;;;;;;;10.27;5.70;;;6.40;99.90;;;;;;5074156;28;20048;-69
2023/04/30 02:12:53;;;;;;;11.93;5.35;;;6.40;99.90;;;;;;5073978;28;20051;-69
2023/04/30 02:15:19;;;;;;;11.05;5.50;;;6.40;99.90;;;;;;5092093;28;20044;-69
2023/04/30 02:17:45;;;;;;;8.00;5.15;;;6.40;99.90;;;;;;5091977;28;20036;-69
2023/04/30 02:20:10;;;;;;;7.32;5.55;;;6.40;99.90;;;;;;5092099;28;20115;-69
2023/04/30 02:22:36;;;;;;;11.70;6.72;;;6.40;99.90;;;;;;5091918;28;20048;-69
2023/04/30 02:25:02;;;;;;;12.80;5.85;;;6.40;99.90;;;;;;5091881;28;20043;-69
2023/04/30 02:27:31;;;;;;;9.40;5.43;;;6.40;99.90;;;;;;5091858;28;20519;-69
2023/04/30 02:29:57;;;;;;;9.80;5.43;;;6.40;99.90;;;;;;5091824;28;20043;-69
2023/04/30 02:32:23;;;;;;;10.10;5.43;;;6.40;99.90;;;;;;5091992;28;20119;-69
2023/04/30 02:34:48;;;;;;;10.13;6.28;;;6.40;99.90;;;;;;5073686;28;20149;-69
2023/04/30 02:37:14;;;;;;;11.00;6.47;;;6.30;99.90;;;;;;5091705;28;20044;-69
2023/04/30 02:39:40;;;;;;;11.38;5.57;;;6.30;99.90;;;;;;5092020;28;20043;-69
2023/04/30 02:42:06;;;;;;;11.98;6.40;;;6.30;99.90;;;;;;5073732;28;20034;-69
2023/04/30 02:44:33;;;;;;;12.02;5.72;;;6.30;99.90;;;;;;5091867;28;20561;-69
2023/04/30 02:47:00;;;;;;;11.32;5.47;;;6.30;99.90;;;;;;5090946;28;20081;-69
2023/04/30 02:49:25;;;;;;;9.50;5.78;;;6.30;99.90;;;;;;5091667;28;20380;-69
2023/04/30 02:51:51;;;;;;;7.78;6.25;;;6.20;99.90;;;;;;5091967;28;20039;-69
2023/04/30 02:54:17;;;;;;;10.20;5.70;;;6.30;99.90;;;;;;5091837;28;20504;-69
2023/04/30 02:56:43;;;;;;;13.63;6.07;;;6.30;99.90;;;;;;5091542;28;20062;-69
2023/04/30 02:59:09;;;;;;;11.45;6.55;;;6.30;99.90;;;;;;5091738;28;20043;-69
2023/04/30 03:01:35;;;;;;;11.38;5.53;;;6.30;99.90;;;;;;5073615;28;20040;-69
2023/04/30 03:04:02;;;;;;;11.57;5.60;;;6.30;99.90;;;;;;5091479;28;20453;-69
2023/04/30 03:06:28;;;;;;;10.13;5.47;;;6.30;99.90;;;;;;5091329;28;20616;-69
2023/04/30 03:08:54;;;;;;;8.50;5.43;;;6.20;99.90;;;;;;5091768;28;20044;-69
2023/04/30 03:11:20;;;;;;;10.25;5.50;;;6.20;99.90;;;;;;5091635;28;20036;-69
2023/04/30 03:13:50;;;;;;;7.63;5.45;;;6.30;99.90;;;;;;5091545;28;20051;-69
2023/04/30 03:16:16;;;;;;;7.03;4.32;;;6.20;99.90;;;;;;5073258;28;20096;-69
2023/04/30 03:18:41;;;;;;;6.53;4.80;;;6.20;99.90;;;;;;5091280;28;20122;-69
2023/04/30 03:21:07;;;;;;;4.47;3.72;;;6.20;99.90;;;;;;5091471;28;20406;-69
2023/04/30 03:23:32;;;;;;;7.45;4.45;;;6.20;99.90;;;;;;5091507;28;20507;-70
2023/04/30 03:25:58;;;;;;;6.38;4.53;;;6.20;99.90;;;;;;5091450;28;20119;-69
2023/04/30 03:28:23;;;;;;;8.52;4.72;;;6.20;99.90;;;;;;5091321;28;20043;-70
2023/04/30 03:30:49;;;;;;;8.43;4.35;;;6.20;99.90;;;;;;5073536;28;20119;-69
2023/04/30 03:33:15;;;;;;;7.50;4.82;;;6.10;99.90;;;;;;5091253;28;20124;-69
2023/04/30 03:35:41;;;;;;;8.90;5.55;;;6.20;99.90;;;;;;5091383;28;20040;-69
2023/04/30 03:38:06;;;;;;;7.45;5.30;;;6.10;99.90;;;;;;5072923;28;20059;-70
2023/04/30 03:40:32;;;;;;;8.45;5.18;;;6.20;99.90;;;;;;5091392;28;20036;-70
2023/04/30 03:42:57;;;;;;;8.10;6.03;;;6.20;99.90;;;;;;5073040;28;20491;-70
2023/04/30 03:45:23;;;;;;;8.30;5.00;;;6.20;99.90;;;;;;5091185;28;20110;-70
2023/04/30 03:47:51;;;;;;;6.75;5.25;;;6.20;99.90;;;;;;5090912;28;20039;-69
2023/04/30 03:50:17;;;;;;;12.07;6.28;;;6.30;99.90;;;;;;5056469;28;20040;-69
2023/04/30 03:52:43;;;;;;;9.80;6.13;;;6.30;99.90;;;;;;5073263;28;20047;-70
2023/04/30 03:55:09;;;;;;;7.80;5.00;;;6.30;99.90;;;;;;5091027;28;20069;-69
2023/04/30 03:57:35;;;;;;;11.20;5.47;;;6.30;99.90;;;;;;5091270;28;20036;-69
2023/04/30 04:00:01;;;;;;;10.18;5.60;;;6.30;99.90;;;;;;5094824;28;20047;-69
2023/04/30 04:02:27;;;;;;;9.88;5.68;;;6.20;99.90;;;;;;5059764;28;20121;-70
2023/04/30 04:04:52;;;;;;;9.50;4.97;;;6.20;99.90;;;;;;5094683;28;20395;-70
2023/04/30 04:07:18;;;;;;;13.40;5.78;;;6.30;99.90;;;;;;5094560;28;20072;-70
2023/04/30 04:09:43;;;;;;;7.47;5.13;;;6.30;99.90;;;;;;5076284;28;20085;-70
2023/04/30 04:12:09;;;;;;;9.07;6.15;;;6.30;99.90;;;;;;5076374;28;20048;-70
2023/04/30 04:14:34;;;;;;;10.60;5.30;;;6.40;99.90;;;;;;5094404;28;20032;-70
2023/04/30 04:17:00;;;;;;;10.93;5.13;;;6.40;99.90;;;;;;5094038;28;20036;-70
2023/04/30 04:19:26;;;;;;;10.30;5.75;;;6.50;99.90;;;;;;5094543;28;20495;-70
2023/04/30 04:21:52;;;;;;;8.52;5.55;;;6.50;99.90;;;;;;5094492;28;20036;-70
2023/04/30 04:24:18;;;;;;;8.15;5.03;;;6.50;99.90;;;;;;5094274;28;20086;-70
2023/04/30 04:26:43;;;;;;;11.13;5.80;;;6.60;99.90;;;;;;5075719;28;20040;-70
2023/04/30 04:29:11;;;;;;;9.52;5.88;;;6.60;99.90;;;;;;5094227;28;20522;-69
2023/04/30 04:31:37;;;;;;;8.77;5.47;;;6.60;99.90;;;;;;5094061;28;20036;-69
2023/04/30 04:34:03;;;;;;;9.05;5.40;;;6.60;99.90;;;;;;5076217;28;20115;-70
2023/04/30 04:36:30;;;;;;;10.45;5.95;;;6.60;99.90;;;;;;5093823;28;20036;-70
2023/04/30 04:38:56;;;;;;;10.40;5.28;;;6.60;99.90;;;;;;5075873;28;20603;-70
2023/04/30 04:41:23;;;;;;;10.25;5.10;;;6.60;99.90;;;;;;5093915;28;20036;-70
2023/04/30 04:43:49;;;;;;;8.55;5.53;;;6.40;99.90;;;;;;5093832;28;20086;-70
2023/04/30 04:46:15;;;;;;;8.45;5.97;;;6.50;99.90;;;;;;5075643;28;20448;-70
2023/04/30 04:48:41;;;;;;;10.68;6.63;;;6.50;99.90;;;;;;5093874;28;20035;-69
2023/04/30 04:51:07;;;;;;;12.02;6.40;;;6.60;99.90;;;;;;5075680;28;20039;-69
2023/04/30 04:53:32;;;;;;;10.98;6.20;;;6.60;99.90;;;;;;5093790;28;20047;-70
2023/04/30 04:55:58;;;;;;;15.30;7.53;;;6.60;99.90;;;;;;5075696;28;20040;-70
2023/04/30 04:58:24;;;;;;;13.85;6.90;;;6.80;99.90;;;;;;5093466;28;20040;-70
2023/04/30 05:00:49;;;;;;;12.68;6.47;;;7.00;99.90;;;;;;5093468;28;20040;-70
2023/04/30 05:03:15;;;;;;;14.35;6.80;;;7.00;99.90;;;;;;5075228;28;20047;-70
2023/04/30 05:05:40;;;;;;;11.25;6.40;;;7.20;99.90;;;;;;5075577;28;20081;-70
2023/04/30 05:08:06;;;;;;;11.27;5.90;;;7.40;99.90;;;;;;5093369;28;20075;-70
2023/04/30 05:10:31;;;;;;;12.75;5.95;;;7.50;99.90;;;;;;5074901;28;20043;-70
2023/04/30 05:12:57;;;;;;;12.55;6.55;;;7.70;99.90;;;;;;5075136;28;20040;-70
2023/04/30 05:15:22;;;;;;;12.38;6.00;;;7.80;99.90;;;;;;5058165;28;20040;-70
2023/04/30 05:17:48;;;;;;;11.48;5.78;;;7.90;99.90;;;;;;5074905;28;20040;-70
2023/04/30 05:20:13;;;;;;;9.00;5.05;;;7.90;99.90;;;;;;5093449;28;20066;-70
2023/04/30 05:22:39;;;;;;;10.43;6.38;;;7.80;99.90;;;;;;5074922;28;20499;-70
2023/04/30 05:25:05;;;;;;;10.05;5.68;;;7.80;99.90;;;;;;5074768;28;20510;-70
2023/04/30 05:27:31;;;;;;;10.18;5.57;;;7.90;99.90;;;;;;5058001;28;20161;-70
2023/04/30 05:29:56;;;;;;;6.85;5.00;;;7.80;99.90;;;;;;5075054;28;20122;-69
2023/04/30 05:32:22;;;;;;;11.98;6.15;;;7.80;99.90;;;;;;5093006;28;20591;-70
2023/04/30 05:34:48;;;;;;;13.30;6.50;;;7.80;99.90;;;;;;5058300;28;20036;-70
2023/04/30 05:37:15;;;;;;;10.90;5.55;;;7.80;99.90;;;;;;5074629;28;20047;-70
2023/04/30 05:39:41;;;;;;;10.90;5.45;;;7.70;99.90;;;;;;5074379;28;20572;-70
2023/04/30 05:42:06;;;;;;;12.77;5.20;;;7.70;99.90;;;;;;5092571;28;20039;-69
2023/04/30 05:44:32;;;;;;;11.40;4.60;;;7.60;99.90;;;;;;5074657;28;20169;-70
2023/04/30 05:46:57;;;;;;;11.63;4.68;;;7.60;99.90;;;;;;5092330;28;20119;-70
2023/04/30 05:49:23;;;;;;;11.55;5.90;;;7.70;99.90;;;;;;5092770;28;20040;-70
2023/04/30 05:51:49;;;;;;;11.30;4.57;;;7.70;99.90;;;;;;5057672;28;20040;-70
2023/04/30 05:54:15;;;;;;;13.35;4.80;;;7.70;99.90;;;;;;5092428;28;20046;-70
2023/04/30 05:56:40;;;;;;;9.85;4.50;;;7.80;99.90;;;;;;5092224;28;20071;-69
2023/04/30 05:59:06;;;;;;;13.52;8.02;;;7.80;99.90;;;;;;5074442;28;20098;-69
2023/04/30 06:01:32;;;;;;;22.63;10.20;;;7.80;99.90;;;;;;5092653;28;20122;-69
2023/04/30 06:04:00;;;;;;;24.05;16.73;;;8.00;99.90;;;;;;5092434;28;20040;-69
2023/04/30 06:06:26;;;;;;;25.98;15.45;;;8.20;99.90;;;;;;5092133;28;20040;-69
2023/04/30 06:08:52;;;;;;;29.75;17.25;;;8.60;99.90;;;;;;5074380;28;20397;-69
2023/04/30 06:11:18;;;;;;;20.35;14.30;;;8.70;99.90;;;;;;5074353;28;20035;-69
2023/04/30 06:13:46;;;;;;;27.58;19.83;;;8.70;99.90;;;;;;5073903;28;20051;-69
2023/04/30 06:16:12;;;;;;;35.95;26.85;;;8.80;99.90;;;;;;5073970;28;20408;-69
2023/04/30 06:18:37;;;;;;;42.38;27.55;;;8.80;99.90;;;;;;5092078;28;20036;-69
2023/04/30 06:21:03;;;;;;;29.00;19.20;;;8.90;99.90;;;;;;5073251;28;20043;-69
2023/04/30 06:23:29;;;;;;;26.17;15.82;;;9.00;99.90;;;;;;5091993;28;20407;-69
2023/04/30 06:25:54;;;;;;;16.77;10.10;;;9.30;99.90;;;;;;5073949;28;20097;-69
2023/04/30 06:28:20;;;;;;;24.02;10.23;;;9.40;99.90;;;;;;5073658;28;20036;-69
2023/04/30 06:30:46;;;;;;;18.45;9.82;;;9.80;99.90;;;;;;5092004;28;20428;-69
2023/04/30 06:33:11;;;;;;;13.07;7.75;;;10.20;99.90;;;;;;5091924;28;20039;-69
2023/04/30 06:35:37;;;;;;;16.00;6.95;;;10.50;99.90;;;;;;5091767;28;20054;-72
2023/04/30 06:38:03;;;;;;;19.02;8.48;;;10.90;99.90;;;;;;5091557;28;20036;-69
2023/04/30 06:40:28;;;;;;;7.90;4.57;;;11.20;99.90;;;;;;5091896;28;20046;-69
2023/04/30 06:42:54;;;;;;;13.68;4.93;;;11.10;99.90;;;;;;5091623;28;20470;-69
2023/04/30 06:45:19;;;;;;;11.15;5.30;;;11.10;99.90;;;;;;5091939;28;20063;-70
2023/04/30 06:47:45;;;;;;;12.52;6.55;;;11.10;99.90;;;;;;5091778;28;20521;-70
2023/04/30 06:50:11;;;;;;;12.88;7.28;;;11.30;99.90;;;;;;5057019;28;20506;-70
2023/04/30 06:52:37;;;;;;;16.35;8.77;;;11.20;99.90;;;;;;5091749;28;20044;-70
2023/04/30 06:55:03;;;;;;;19.90;8.40;;;11.00;99.90;;;;;;5091638;28;20067;-69
2023/04/30 06:57:28;;;;;;;9.70;5.75;;;10.80;99.90;;;;;;5091386;28;20032;-69
2023/04/30 06:59:54;;;;;;;14.43;5.53;;;10.90;99.90;;;;;;5091886;28;20119;-70
2023/04/30 07:02:19;;;;;;;14.40;5.90;;;10.90;99.90;;;;;;5091738;28;20085;-69
2023/04/30 07:04:45;;;;;;;8.75;5.00;;;11.10;99.90;;;;;;5091424;28;20040;-69
2023/04/30 07:07:11;;;;;;;10.95;6.20;;;11.30;99.90;;;;;;5091463;28;20115;-70
2023/04/30 07:09:36;;;;;;;10.90;4.95;;;11.50;99.90;;;;;;5091645;28;20040;-69
2023/04/30 07:12:02;;;;;;;7.10;3.63;;;11.40;99.90;;;;;;5073589;28;20491;-69
2023/04/30 07:14:28;;;;;;;6.38;2.80;;;11.40;99.90;;;;;;5091874;28;20522;-69
2023/04/30 07:16:53;;;;;;;12.73;2.78;;;11.30;99.90;;;;;;5073220;28;20070;-69
2023/04/30 07:19:19;;;;;;;9.32;2.92;;;11.30;99.90;;;;;;5091810;28;20044;-70
2023/04/30 07:21:45;;;;;;;6.25;2.58;;;11.20;99.90;;;;;;5091687;28;20286;-69
2023/04/30 07:24:10;;;;;;;7.85;2.47;;;11.30;99.90;;;;;;5091504;28;20123;-71
2023/04/30 07:26:36;;;;;;;7.38;2.70;;;11.50;99.90;;;;;;5091093;28;20036;-69
2023/04/30 07:29:02;;;;;;;10.15;2.65;;;11.70;99.90;;;;;;5073271;28;20384;-69
2023/04/30 07:31:28;;;;;;;5.70;2.92;;;12.10;99.90;;;;;;5073605;28;20028;-69
2023/04/30 07:33:54;;;;;;;7.03;2.60;;;12.00;99.90;;;;;;5095493;28;20410;-70
2023/04/30 07:36:20;;;;;;;9.32;2.50;;;11.70;99.90;;;;;;5076691;28;20058;-70
2023/04/30 07:38:46;;;;;;;5.85;2.90;;;11.50;99.90;;;;;;5077131;28;20039;-69
2023/04/30 07:41:12;;;;;;;9.05;3.13;;;11.40;99.90;;;;;;5063362;28;20674;-69
2023/04/30 07:43:37;;;;;;;8.70;2.42;;;11.30;99.90;;;;;;5074844;28;20431;-70
2023/04/30 07:46:03;;;;;;;7.60;3.40;;;11.20;99.90;;;;;;5056646;28;20041;-70
2023/04/30 07:48:29;;;;;;;16.83;4.00;;;11.00;99.90;;;;;;5061936;28;20040;-70
2023/04/30 07:50:55;;;;;;;11.15;3.10;;;11.30;99.90;;;;;;5050405;28;20458;-69
2023/04/30 07:53:22;;;;;;;8.80;2.78;;;11.50;99.90;;;;;;5093969;28;20039;-71
2023/04/30 07:55:47;;;;;;;12.95;3.50;;;11.70;99.90;;;;;;5087190;28;20094;-72
2023/04/30 07:58:13;;;;;;;6.72;2.38;;;12.10;99.90;;;;;;5094131;28;20407;-69
2023/04/30 08:00:39;;;;;;;10.48;2.88;;;12.20;99.90;;;;;;5094615;28;20469;-69
2023/04/30 08:03:04;;;;;;;10.43;2.67;;;12.30;99.90;;;;;;5094334;28;20036;-68
2023/04/30 08:05:30;;;;;;;7.57;2.17;;;12.30;99.90;;;;;;5094210;28;20040;-68
2023/04/30 08:07:56;;;;;;;4.03;2.10;;;12.30;99.70;;;;;;5094162;28;20032;-70
2023/04/30 08:10:21;;;;;;;8.18;2.45;;;12.30;99.90;;;;;;5076145;28;20048;-72
2023/04/30 08:12:47;;;;;;;8.65;2.35;;;12.20;99.90;;;;;;5076043;28;20044;-72
2023/04/30 08:15:12;;;;;;;8.40;2.75;;;12.30;99.90;;;;;;5087846;28;20453;-72
2023/04/30 08:17:38;;;;;;;7.18;3.00;;;12.60;99.90;;;;;;5075837;28;20502;-72
2023/04/30 08:20:04;;;;;;;7.82;2.30;;;12.60;99.90;;;;;;5075922;28;20048;-70
2023/04/30 08:22:29;;;;;;;10.50;2.65;;;12.80;99.90;;;;;;5094159;28;20039;-70
2023/04/30 08:24:55;;;;;;;5.32;2.65;;;12.70;99.40;;;;;;5093765;28;20507;-70
2023/04/30 08:27:22;;;;;;;7.57;2.35;;;12.80;99.20;;;;;;5075920;28;20089;-70
2023/04/30 08:29:47;;;;;;;10.32;2.60;;;13.00;99.60;;;;;;5075921;28;20514;-72
2023/04/30 08:32:13;;;;;;;9.25;2.70;;;13.30;99.00;;;;;;5079751;28;20028;-71
2023/04/30 08:34:42;;;;;;;6.85;2.15;;;13.30;97.80;;;;;;5093877;28;20036;-71
2023/04/30 08:37:07;;;;;;;9.13;2.20;;;13.10;97.00;;;;;;5093384;28;20036;-72
2023/04/30 08:39:33;;;;;;;5.72;2.25;;;13.20;96.70;;;;;;5093736;28;20088;-71
2023/04/30 08:42:03;;;;;;;7.30;2.65;;;13.20;96.00;;;;;;5093747;28;20036;-71
2023/04/30 08:44:29;;;;;;;6.38;1.73;;;13.30;96.60;;;;;;5093036;28;20059;-72
2023/04/30 08:46:59;;;;;;;11.27;3.17;;;13.30;96.40;;;;;;5093246;28;20118;-71
2023/04/30 08:49:25;;;;;;;8.57;2.67;;;13.30;96.40;;;;;;5093648;28;20448;-71
2023/04/30 08:51:51;;;;;;;6.10;2.22;;;13.50;97.40;;;;;;5075392;28;20055;-71
2023/04/30 08:54:18;;;;;;;8.68;2.25;;;13.70;97.20;;;;;;5075254;28;20588;-71
2023/04/30 08:56:46;;;;;;;6.25;2.50;;;13.60;96.70;;;;;;5093248;28;20055;-69
2023/04/30 08:59:12;;;;;;;5.53;2.40;;;13.40;97.00;;;;;;5093298;28;20503;-69
2023/04/30 09:01:38;;;;;;;6.13;2.20;;;13.50;96.80;;;;;;5093500;28;20028;-69
2023/04/30 09:04:05;;;;;;;7.57;2.10;;;13.40;96.80;;;;;;5093118;28;20442;-71
2023/04/30 09:06:30;;;;;;;4.65;2.05;;;13.40;97.00;;;;;;5092975;28;20028;-72
2023/04/30 09:08:56;;;;;;;9.35;2.28;;;13.20;96.60;;;;;;5090965;28;20047;-72
2023/04/30 09:11:30;;;;;;;8.38;2.92;;;13.20;96.60;;;;;;5092477;28;20036;-72
2023/04/30 09:13:59;;;;;;;8.98;2.78;;;13.10;95.90;;;;;;5093137;28;20043;-69
2023/04/30 09:16:26;;;;;;;8.23;2.80;;;13.00;95.90;;;;;;5093028;28;20051;-72
2023/04/30 09:18:52;;;;;;;9.40;2.67;;;13.10;96.30;;;;;;5089451;28;20044;-72
2023/04/30 09:21:34;;;;;;;6.78;2.40;;;13.10;96.10;;;;;;5087028;28;20036;-72
2023/04/30 09:24:02;;;;;;;5.35;2.00;;;13.00;94.90;;;;;;5093186;28;20408;-69
2023/04/30 09:26:32;;;;;;;8.95;2.60;;;12.80;95.20;;;;;;5093073;28;20035;-69
2023/04/30 09:28:59;;;;;;;6.05;2.40;;;12.80;95.00;;;;;;5093285;28;20058;-71
2023/04/30 09:31:25;;;;;;;9.98;2.53;;;12.70;95.50;;;;;;5093093;28;20032;-72
2023/04/30 09:33:55;;;;;;;9.27;2.65;;;12.80;96.00;;;;;;5093063;28;20055;-69
2023/04/30 09:36:20;;;;;;;7.35;2.60;;;12.80;95.50;;;;;;5093317;28;20513;-69
2023/04/30 09:38:46;;;;;;;10.25;2.75;;;12.80;95.30;;;;;;5092837;28;20077;-70
2023/04/30 09:41:26;;;;;;;5.25;2.50;;;12.90;95.30;;;;;;5058288;28;20051;-70
2023/04/30 09:43:56;;;;;;;5.78;2.33;;;12.80;94.60;;;;;;5058168;28;20044;-70
2023/04/30 09:46:31;;;;;;;5.35;2.17;;;12.70;93.90;;;;;;5075034;28;20032;-70
2023/04/30 09:48:59;;;;;;;9.82;2.70;;;12.80;94.60;;;;;;5088255;28;20039;-70
2023/04/30 09:51:25;;;;;;;8.02;2.55;;;12.80;94.50;;;;;;5082910;28;20036;-70
2023/04/30 09:53:52;;;;;;;5.10;2.65;;;12.80;94.00;;;;;;5071822;28;20044;-70
2023/04/30 09:56:25;;;;;;;8.88;2.95;;;12.60;93.50;;;;;;5086759;28;20039;-70
2023/04/30 09:58:55;;;;;;;7.07;2.95;;;12.80;93.40;;;;;;5081506;28;20350;-70
2023/04/30 10:01:26;;;;;;;6.82;2.42;;;12.80;93.70;;;;;;5081129;28;20045;-70
2023/04/30 10:03:52;;;;;;;4.03;2.28;;;12.90;94.00;;;;;;5086657;28;20044;-71
2023/04/30 10:06:20;;;;;;;9.23;2.95;;;12.90;94.10;;;;;;5092342;28;20119;-70
2023/04/30 10:08:55;;;;;;;5.35;2.28;;;13.00;94.30;;;;;;5092597;28;20040;-71
2023/04/30 10:11:26;;;;;;;5.32;1.95;;;13.00;91.80;;;;;;5074540;28;20115;-71
2023/04/30 10:14:01;;;;;;;4.25;1.90;;;13.20;91.30;;;;;;5088415;28;20036;-71
2023/04/30 10:16:36;;;;;;;5.93;2.22;;;13.40;91.30;;;;;;5088332;28;20119;-71
2023/04/30 10:19:24;;;;;;;7.85;2.60;;;13.50;91.20;;;;;;5092458;28;20035;-71
2023/04/30 10:21:50;;;;;;;6.38;2.35;;;13.60;91.80;;;;;;5092220;28;20127;-71
2023/04/30 10:24:18;;;;;;;4.47;2.03;;;13.50;90.30;;;;;;5092391;28;20086;-71
2023/04/30 10:26:46;;;;;;;11.93;2.85;;;13.70;89.80;;;;;;5092112;28;20054;-71
2023/04/30 10:29:16;;;;;;;7.13;2.35;;;13.70;88.60;;;;;;5092275;28;20089;-71
2023/04/30 10:31:51;;;;;;;8.50;3.20;;;13.50;88.80;;;;;;5073845;28;20044;-71
2023/04/30 10:34:30;;;;;;;10.07;3.30;;;13.60;86.40;;;;;;5092457;28;20119;-71
2023/04/30 10:37:03;;;;;;;7.38;2.38;;;13.60;87.90;;;;;;5092136;28;20053;-71
2023/04/30 10:39:29;;;;;;;6.88;2.50;;;13.70;89.10;;;;;;5086241;28;20048;-71
2023/04/30 10:42:03;;;;;;;6.43;2.03;;;13.80;89.00;;;;;;5054134;28;20079;-70
2023/04/30 10:44:32;;;;;;;10.65;2.90;;;13.80;87.60;;;;;;5037006;28;20036;-71
2023/04/30 10:47:02;;;;;;;7.68;2.90;;;13.60;86.90;;;;;;5052964;28;20119;-71
2023/04/30 10:49:27;;;;;;;7.60;2.63;;;13.70;88.10;;;;;;5071845;28;20040;-71
2023/04/30 10:51:55;;;;;;;8.10;2.63;;;13.70;89.30;;;;;;5071716;28;20116;-70
2023/04/30 10:54:27;;;;;;;10.25;2.53;;;13.80;89.30;;;;;;5071514;28;20090;-71
2023/04/30 10:57:13;;;;;;;4.55;3.13;;;13.80;90.00;;;;;;5053359;28;20581;-71
2023/04/30 10:59:49;;;;;;;9.25;2.65;;;13.80;87.90;;;;;;5053101;28;20104;-71
2023/04/30 11:02:16;;;;;;;4.72;2.22;;;13.80;85.40;;;;;;5071065;28;20673;-73
2023/04/30 11:05:07;;;;;;;8.38;2.50;;;13.70;85.00;;;;;;5053411;28;20043;-71
2023/04/30 11:07:33;;;;;;;7.38;3.00;;;13.70;84.70;;;;;;5073458;28;20028;-71
2023/04/30 11:10:03;;;;;;;9.27;2.70;;;13.60;85.00;;;;;;5057649;28;20573;-71
2023/04/30 11:12:29;;;;;;;9.88;2.67;;;13.60;85.20;;;;;;5057380;28;20609;-71
2023/04/30 11:15:06;;;;;;;8.73;2.58;;;13.70;87.60;;;;;;5056786;28;20037;-71
2023/04/30 11:17:32;;;;;;;10.40;3.65;;;14.00;88.90;;;;;;5056961;28;20036;-71
2023/04/30 11:20:02;;;;;;;6.45;2.67;;;13.90;88.80;;;;;;5040908;28;20032;-71
2023/04/30 11:22:35;;;;;;;6.75;2.90;;;13.80;89.20;;;;;;5057708;28;20044;-71
2023/04/30 11:25:14;;;;;;;5.00;3.33;;;13.90;90.60;;;;;;5075426;28;20119;-71
2023/04/30 11:27:44;;;;;;;8.23;3.10;;;13.90;90.20;;;;;;5059409;28;20032;-71
2023/04/30 11:30:12;;;;;;;9.35;3.28;;;14.00;88.60;;;;;;5057301;28;20052;-71
2023/04/30 11:32:38;;;;;;;9.18;3.60;;;13.90;88.10;;;;;;5075387;28;20123;-71
2023/04/30 11:35:05;;;;;;;8.30;3.15;;;14.10;87.70;;;;;;5075121;28;20557;-71
2023/04/30 11:37:32;;;;;;;7.38;3.28;;;14.10;88.20;;;;;;5040168;28;20036;-71
2023/04/30 11:40:06;;;;;;;5.93;3.00;;;14.10;88.40;;;;;;5057178;28;20044;-71
2023/04/30 11:42:33;;;;;;;6.35;2.80;;;14.10;86.90;;;;;;5057074;28;20192;-71
2023/04/30 11:45:11;;;;;;;9.93;3.10;;;14.00;87.80;;;;;;5056722;28;20051;-71
2023/04/30 11:47:45;;;;;;;4.82;3.05;;;14.00;86.90;;;;;;5056574;28;20033;-71
2023/04/30 11:50:16;;;;;;;10.48;3.38;;;14.10;92.40;;;;;;5057098;28;20045;-71
2023/04/30 11:52:48;;;;;;;4.78;2.88;;;14.20;91.00;;;;;;5074704;28;20044;-71
2023/04/30 11:55:16;;;;;;;8.15;2.70;;;14.20;90.00;;;;;;5056708;28;20052;-71
2023/04/30 11:57:43;;;;;;;5.28;3.00;;;14.20;89.70;;;;;;5074250;28;20050;-71
2023/04/30 12:00:17;;;;;;;8.27;3.03;;;14.20;89.60;;;;;;5074533;28;20044;-71
2023/04/30 12:02:44;;;;;;;5.50;2.67;;;14.30;90.90;;;;;;5074359;28;20052;-71
2023/04/30 12:05:20;;;;;;;5.47;3.00;;;14.40;90.90;;;;;;5074130;28;20147;-71
2023/04/30 12:07:48;;;;;;;4.13;2.92;;;14.30;88.60;;;;;;5056066;28;20117;-71
2023/04/30 12:10:14;;;;;;;6.70;3.15;;;14.30;88.70;;;;;;5077395;28;20033;-71
2023/04/30 12:12:41;;;;;;;5.53;3.00;;;14.30;88.80;;;;;;5069625;28;20036;-71
2023/04/30 12:15:14;;;;;;;4.18;3.10;;;14.40;89.80;;;;;;5073778;28;20776;-71
2023/04/30 12:17:40;;;;;;;5.47;3.00;;;14.50;89.90;;;;;;5079152;28;20040;-71
2023/04/30 12:20:08;;;;;;;8.15;3.33;;;14.50;89.10;;;;;;5066912;28;20052;-71
2023/04/30 12:22:34;;;;;;;5.75;3.08;;;14.40;88.50;;;;;;5077426;28;20047;-71
2023/04/30 12:25:04;;;;;;;6.82;3.38;;;14.30;88.70;;;;;;5074855;28;20111;-71
2023/04/30 12:27:30;;;;;;;4.47;2.70;;;14.30;89.50;;;;;;5072600;28;20064;-70
2023/04/30 12:29:56;;;;;;;7.47;3.63;;;14.40;90.60;;;;;;5072916;28;20090;-70
2023/04/30 12:32:21;;;;;;;6.30;2.88;;;14.50;90.60;;;;;;5072845;28;20036;-71
2023/04/30 12:34:47;;;;;;;5.70;2.60;;;14.50;90.30;;;;;;5072767;28;20465;-70
2023/04/30 12:37:16;;;;;;;4.80;2.60;;;14.60;90.30;;;;;;5072545;28;20044;-70
2023/04/30 12:39:42;;;;;;;6.15;3.15;;;14.60;90.20;;;;;;5073948;28;20381;-70
2023/04/30 12:42:09;;;;;;;5.13;2.65;;;14.70;90.30;;;;;;5072864;28;20090;-71
2023/04/30 12:44:46;;;;;;;5.18;2.53;;;14.70;90.20;;;;;;5072461;28;20512;-70
2023/04/30 12:47:13;;;;;;;7.38;3.83;;;14.60;90.30;;;;;;5058216;28;20032;-69
2023/04/30 12:49:39;;;;;;;4.00;2.83;;;14.70;90.20;;;;;;5073491;28;20446;-70